Time;durP1;ratioP1;P1;durP2;ratioP2;P2;SDS_P1;SDS_P2;PMS_P1;PMS_P2;Temp;Humidity;BMP_temperature;BMP_pressure;BME280_temperature;BME280_humidity;BME280_pressure;Samples;Min_cycle;Max_cycle;Signal;HPM_P1;HPM_P2
2022/01/11 00:00:23;;;;;;;21.52;15.18;;;;;;;;;;5050984;28;20094;-59
2022/01/11 00:02:49;;;;;;;19.70;14.07;;;;;;;;;;5049818;28;20049;-59
2022/01/11 00:05:22;;;;;;;22.15;15.30;;;;;;;;;;5050663;28;20175;-59
2022/01/11 00:07:48;;;;;;;19.65;14.50;;;;;;;;;;5050805;28;20053;-59
2022/01/11 00:10:23;;;;;;;22.02;14.65;;;;;;;;;;5050085;28;20048;-58
2022/01/11 00:12:49;;;;;;;19.02;13.93;;;;;;;;;;5053477;28;20098;-59
2022/01/11 00:15:15;;;;;;;19.50;14.25;;;;;;;;;;5054781;28;20079;-58
2022/01/11 00:17:43;;;;;;;20.35;15.15;;;;;;;;;;5054296;28;20049;-59
2022/01/11 00:20:12;;;;;;;19.30;14.98;;;;;;;;;;5054853;28;20099;-59
2022/01/11 00:22:56;;;;;;;20.02;15.07;;;;;;;;;;5054900;28;20102;-59
2022/01/11 00:25:21;;;;;;;21.75;15.65;;;;;;;;;;5054099;28;20052;-59
2022/01/11 00:27:47;;;;;;;20.97;15.13;;;;;;;;;;5054297;28;20124;-59
2022/01/11 00:30:14;;;;;;;21.67;15.07;;;;;;;;;;5054608;28;20321;-58
2022/01/11 00:32:46;;;;;;;21.70;15.23;;;;;;;;;;5053702;28;20048;-59
2022/01/11 00:35:16;;;;;;;22.20;15.45;;;;;;;;;;5054756;28;20052;-58
2022/01/11 00:37:42;;;;;;;21.58;15.00;;;;;;;;;;5053878;28;20103;-58
2022/01/11 00:40:09;;;;;;;19.50;14.98;;;;;;;;;;5054449;28;20550;-59
2022/01/11 00:42:36;;;;;;;20.45;15.13;;;;;;;;;;5054447;28;20099;-59
2022/01/11 00:45:02;;;;;;;22.27;15.95;;;;;;;;;;5053459;28;20510;-59
2022/01/11 00:47:28;;;;;;;20.67;14.70;;;;;;;;;;5054476;28;20107;-59
2022/01/11 00:49:55;;;;;;;20.25;15.30;;;;;;;;;;5054335;28;20076;-58
2022/01/11 00:52:23;;;;;;;20.75;15.55;;;;;;;;;;5053543;28;20072;-59
2022/01/11 00:54:49;;;;;;;19.88;14.82;;;;;;;;;;5053796;28;20454;-59
2022/01/11 00:57:15;;;;;;;24.38;16.70;;;;;;;;;;5054196;28;20494;-59
2022/01/11 00:59:41;;;;;;;21.58;15.93;;;;;;;;;;5053160;28;20446;-59
2022/01/11 01:02:08;;;;;;;21.85;16.27;;;;;;;;;;5054156;28;20488;-59
2022/01/11 01:04:34;;;;;;;23.13;16.08;;;;;;;;;;5053316;28;20488;-59
2022/01/11 01:07:00;;;;;;;21.10;15.88;;;;;;;;;;5051993;28;20099;-58
2022/01/11 01:09:36;;;;;;;21.65;15.10;;;;;;;;;;5052636;28;20514;-59
2022/01/11 01:12:02;;;;;;;21.48;15.73;;;;;;;;;;5052520;28;20045;-58
2022/01/11 01:14:28;;;;;;;20.63;15.07;;;;;;;;;;5051745;28;20484;-59
2022/01/11 01:16:55;;;;;;;21.77;16.15;;;;;;;;;;5052288;28;20049;-58
2022/01/11 01:19:21;;;;;;;23.50;16.48;;;;;;;;;;5052614;28;20072;-59
2022/01/11 01:21:49;;;;;;;21.17;16.48;;;;;;;;;;5051672;28;20073;-58
2022/01/11 01:24:15;;;;;;;20.52;15.75;;;;;;;;;;5051824;28;20498;-59
2022/01/11 01:26:43;;;;;;;21.30;15.50;;;;;;;;;;5052060;28;20053;-58
2022/01/11 01:29:09;;;;;;;23.27;16.05;;;;;;;;;;5052203;28;20045;-59
2022/01/11 01:31:36;;;;;;;20.58;16.20;;;;;;;;;;5052576;28;20102;-58
2022/01/11 01:34:02;;;;;;;23.48;16.83;;;;;;;;;;5051341;28;20044;-59
2022/01/11 01:36:28;;;;;;;20.55;15.98;;;;;;;;;;5052285;28;20496;-58
2022/01/11 01:38:54;;;;;;;22.88;16.85;;;;;;;;;;5051958;28;20585;-58
2022/01/11 01:41:21;;;;;;;22.17;16.17;;;;;;;;;;5051498;28;20049;-59
2022/01/11 01:43:52;;;;;;;21.05;15.88;;;;;;;;;;5052009;28;20135;-58
2022/01/11 01:46:18;;;;;;;21.40;15.98;;;;;;;;;;5052363;28;20047;-58
2022/01/11 01:48:48;;;;;;;22.88;16.95;;;;;;;;;;5051090;28;20706;-58
2022/01/11 01:51:14;;;;;;;21.80;15.68;;;;;;;;;;5052058;28;20095;-59
2022/01/11 01:53:42;;;;;;;21.10;16.08;;;;;;;;;;5052096;28;20443;-59
2022/01/11 01:56:08;;;;;;;22.70;16.98;;;;;;;;;;5050968;28;20095;-59
2022/01/11 01:58:34;;;;;;;21.25;15.60;;;;;;;;;;5052008;28;20566;-59
2022/01/11 02:01:04;;;;;;;20.95;15.90;;;;;;;;;;5051566;28;20044;-59
2022/01/11 02:03:31;;;;;;;20.88;15.88;;;;;;;;;;5051278;28;20136;-59
2022/01/11 02:05:59;;;;;;;22.02;16.85;;;;;;;;;;5017072;28;1007327;-59
2022/01/11 02:08:26;;;;;;;21.95;17.73;;;;;;;;;;5052823;28;20049;-58
2022/01/11 02:10:53;;;;;;;21.77;16.30;;;;;;;;;;5051795;28;20049;-58
2022/01/11 02:13:19;;;;;;;22.02;16.42;;;;;;;;;;5052939;28;20057;-59
2022/01/11 02:15:45;;;;;;;22.83;17.00;;;;;;;;;;5052367;28;20095;-59
2022/01/11 02:18:14;;;;;;;22.23;16.63;;;;;;;;;;5052004;28;20040;-58
2022/01/11 02:20:43;;;;;;;22.27;16.35;;;;;;;;;;5052660;28;20053;-59
2022/01/11 02:23:10;;;;;;;18.65;15.20;;;;;;;;;;5052174;28;20055;-59
2022/01/11 02:25:36;;;;;;;24.65;17.10;;;;;;;;;;5052421;28;20095;-59
2022/01/11 02:28:02;;;;;;;20.42;16.38;;;;;;;;;;5052374;28;20049;-58
2022/01/11 02:30:32;;;;;;;19.70;15.70;;;;;;;;;;5051564;28;20094;-59
2022/01/11 02:32:59;;;;;;;20.80;15.40;;;;;;;;;;5052017;28;20128;-59
2022/01/11 02:35:25;;;;;;;22.00;16.00;;;;;;;;;;5051158;28;20112;-58
2022/01/11 02:37:53;;;;;;;22.23;17.00;;;;;;;;;;5051533;28;20115;-58
2022/01/11 02:40:19;;;;;;;21.80;16.10;;;;;;;;;;5052184;28;20045;-59
2022/01/11 02:42:45;;;;;;;20.88;15.98;;;;;;;;;;5051999;28;20041;-58
2022/01/11 02:45:12;;;;;;;20.20;15.20;;;;;;;;;;5051338;28;20049;-58
2022/01/11 02:47:39;;;;;;;21.33;15.73;;;;;;;;;;5052128;28;20095;-59
2022/01/11 02:50:05;;;;;;;21.13;15.98;;;;;;;;;;5051708;28;20098;-58
2022/01/11 02:52:32;;;;;;;19.83;15.40;;;;;;;;;;5051366;28;20049;-58
2022/01/11 02:54:59;;;;;;;20.73;15.43;;;;;;;;;;5051858;28;20451;-59
2022/01/11 02:57:25;;;;;;;22.02;16.58;;;;;;;;;;5051782;28;20049;-58
2022/01/11 02:59:52;;;;;;;20.27;15.73;;;;;;;;;;5050792;28;20431;-58
2022/01/11 03:02:18;;;;;;;19.67;14.80;;;;;;;;;;5051640;28;20048;-58
2022/01/11 03:04:44;;;;;;;19.23;15.25;;;;;;;;;;5051284;28;20049;-58
2022/01/11 03:07:10;;;;;;;21.00;15.82;;;;;;;;;;5050997;28;20150;-58
2022/01/11 03:09:51;;;;;;;19.95;15.27;;;;;;;;;;5051831;28;20049;-58
2022/01/11 03:12:18;;;;;;;21.38;16.05;;;;;;;;;;5050807;28;20052;-58
2022/01/11 03:14:45;;;;;;;19.98;15.02;;;;;;;;;;5051392;28;20045;-59
2022/01/11 03:17:11;;;;;;;22.63;16.10;;;;;;;;;;5051192;28;20099;-59
2022/01/11 03:19:37;;;;;;;21.15;15.57;;;;;;;;;;5051084;28;20527;-59
2022/01/11 03:22:04;;;;;;;21.58;15.63;;;;;;;;;;5051199;28;20048;-59
2022/01/11 03:24:30;;;;;;;20.27;15.20;;;;;;;;;;5051424;28;20528;-59
2022/01/11 03:26:56;;;;;;;21.38;15.52;;;;;;;;;;5050322;28;20044;-58
2022/01/11 03:29:24;;;;;;;21.40;16.25;;;;;;;;;;5051301;28;20049;-59
2022/01/11 03:31:51;;;;;;;19.10;15.27;;;;;;;;;;5050770;28;20480;-58
2022/01/11 03:34:19;;;;;;;20.58;16.02;;;;;;;;;;5050708;28;20071;-59
2022/01/11 03:36:48;;;;;;;20.40;15.70;;;;;;;;;;5050985;28;20056;-59
2022/01/11 03:39:14;;;;;;;21.75;15.80;;;;;;;;;;5051197;28;20103;-59
2022/01/11 03:41:40;;;;;;;20.92;15.88;;;;;;;;;;5050425;28;20052;-59
2022/01/11 03:44:06;;;;;;;20.25;16.08;;;;;;;;;;5050840;28;20056;-58
2022/01/11 03:46:34;;;;;;;20.10;15.75;;;;;;;;;;5050987;28;20045;-59
2022/01/11 03:49:00;;;;;;;21.20;15.85;;;;;;;;;;5050058;28;20102;-58
2022/01/11 03:51:26;;;;;;;21.80;15.90;;;;;;;;;;5051185;28;20107;-59
2022/01/11 03:54:00;;;;;;;23.35;17.40;;;;;;;;;;5050692;28;20051;-58
2022/01/11 03:56:26;;;;;;;21.42;15.95;;;;;;;;;;5050146;28;20052;-58
2022/01/11 03:58:53;;;;;;;21.52;16.08;;;;;;;;;;5050521;28;20041;-59
2022/01/11 04:01:19;;;;;;;21.75;16.13;;;;;;;;;;5051113;28;20045;-59
2022/01/11 04:03:47;;;;;;;21.13;16.10;;;;;;;;;;5049949;28;20041;-58
2022/01/11 04:06:16;;;;;;;22.60;16.80;;;;;;;;;;5050690;28;20049;-58
2022/01/11 04:08:43;;;;;;;21.92;15.93;;;;;;;;;;5049889;28;20041;-59
2022/01/11 04:11:09;;;;;;;23.75;17.38;;;;;;;;;;5050806;28;20053;-58
2022/01/11 04:13:35;;;;;;;23.38;16.58;;;;;;;;;;5050603;28;20049;-59
2022/01/11 04:16:01;;;;;;;22.45;17.05;;;;;;;;;;5049976;28;20045;-58
2022/01/11 04:18:28;;;;;;;23.13;16.65;;;;;;;;;;5050766;28;20103;-59
2022/01/11 04:20:55;;;;;;;22.15;16.25;;;;;;;;;;5050679;28;20102;-58
2022/01/11 04:23:23;;;;;;;23.75;17.75;;;;;;;;;;5049995;28;20207;-58
2022/01/11 04:25:49;;;;;;;21.25;16.05;;;;;;;;;;5050474;28;20083;-59
2022/01/11 04:28:16;;;;;;;22.52;16.98;;;;;;;;;;5050860;28;20102;-59
2022/01/11 04:30:42;;;;;;;22.80;16.65;;;;;;;;;;5049948;28;20049;-58
2022/01/11 04:33:08;;;;;;;22.80;16.27;;;;;;;;;;5050508;28;20488;-58
2022/01/11 04:35:34;;;;;;;23.85;17.15;;;;;;;;;;5050712;28;20106;-59
2022/01/11 04:38:02;;;;;;;22.85;16.48;;;;;;;;;;5049636;28;20053;-59
2022/01/11 04:40:28;;;;;;;22.85;16.98;;;;;;;;;;5050371;28;20049;-59
2022/01/11 04:42:54;;;;;;;22.63;17.15;;;;;;;;;;5050532;28;20122;-58
2022/01/11 04:45:21;;;;;;;21.98;16.27;;;;;;;;;;5049533;28;20515;-59
2022/01/11 04:47:52;;;;;;;23.70;17.45;;;;;;;;;;5050442;28;20045;-59
2022/01/11 04:50:18;;;;;;;22.80;16.42;;;;;;;;;;5050497;28;20132;-58
2022/01/11 04:52:45;;;;;;;22.45;16.45;;;;;;;;;;5049559;28;20627;-58
2022/01/11 04:55:12;;;;;;;23.95;17.27;;;;;;;;;;5050166;28;20496;-58
2022/01/11 04:57:38;;;;;;;23.92;16.92;;;;;;;;;;5051303;28;20049;-59
2022/01/11 05:00:05;;;;;;;23.33;17.25;;;;;;;;;;5053177;28;20049;-58
2022/01/11 05:02:32;;;;;;;23.80;17.08;;;;;;;;;;5054333;28;20118;-58
2022/01/11 05:04:58;;;;;;;23.33;16.83;;;;;;;;;;5052854;28;20045;-59
2022/01/11 05:07:24;;;;;;;23.90;17.70;;;;;;;;;;5053972;28;20045;-59
2022/01/11 05:09:51;;;;;;;23.73;16.75;;;;;;;;;;5053615;28;20704;-58
2022/01/11 05:12:20;;;;;;;22.20;16.63;;;;;;;;;;5053701;28;20502;-58
2022/01/11 05:14:46;;;;;;;22.83;16.98;;;;;;;;;;5053545;28;20465;-58
2022/01/11 05:17:12;;;;;;;22.73;17.33;;;;;;;;;;5053863;28;20053;-58
2022/01/11 05:19:38;;;;;;;22.67;16.83;;;;;;;;;;5053062;28;20079;-58
2022/01/11 05:22:05;;;;;;;21.60;16.95;;;;;;;;;;5053315;28;20053;-58
2022/01/11 05:24:31;;;;;;;22.45;16.88;;;;;;;;;;5053875;28;20049;-58
2022/01/11 05:26:57;;;;;;;23.85;17.10;;;;;;;;;;5052716;28;20045;-58
2022/01/11 05:29:25;;;;;;;23.33;17.42;;;;;;;;;;5053670;28;20049;-57
2022/01/11 05:31:51;;;;;;;23.95;17.10;;;;;;;;;;5053042;28;20554;-57
2022/01/11 05:34:17;;;;;;;23.58;17.17;;;;;;;;;;5052722;28;20044;-57
2022/01/11 05:36:44;;;;;;;23.55;16.98;;;;;;;;;;5052925;28;20045;-57
2022/01/11 05:39:10;;;;;;;24.45;17.50;;;;;;;;;;5053626;28;20044;-57
2022/01/11 05:41:36;;;;;;;16.63;12.73;;;;;;;;;;5052504;28;20049;-57
2022/01/11 05:44:03;;;;;;;20.75;15.32;;;;;;;;;;5053236;28;20053;-58
2022/01/11 05:46:31;;;;;;;23.85;14.35;;;;;;;;;;5053116;28;20053;-58
2022/01/11 05:48:57;;;;;;;20.27;14.80;;;;;;;;;;5052467;28;20053;-58
2022/01/11 05:51:25;;;;;;;19.48;14.73;;;;;;;;;;5052974;28;20060;-58
2022/01/11 05:53:51;;;;;;;21.92;14.95;;;;;;;;;;5053138;28;20466;-58
2022/01/11 05:56:17;;;;;;;22.55;15.15;;;;;;;;;;5052206;28;20048;-58
2022/01/11 05:58:44;;;;;;;21.60;16.15;;;;;;;;;;5052931;28;20045;-58
2022/01/11 06:01:10;;;;;;;21.33;14.82;;;;;;;;;;5052112;28;20049;-58
2022/01/11 06:03:38;;;;;;;21.73;15.63;;;;;;;;;;5053065;28;20455;-58
2022/01/11 06:06:04;;;;;;;23.35;16.15;;;;;;;;;;5052377;28;20053;-58
2022/01/11 06:08:30;;;;;;;24.83;16.58;;;;;;;;;;5052060;28;20458;-58
2022/01/11 06:10:57;;;;;;;22.20;15.43;;;;;;;;;;5051822;28;20095;-59
2022/01/11 06:13:23;;;;;;;21.15;15.27;;;;;;;;;;5052848;28;20083;-59
2022/01/11 06:15:50;;;;;;;22.30;15.77;;;;;;;;;;5051659;28;20045;-59
2022/01/11 06:18:16;;;;;;;22.60;16.10;;;;;;;;;;5052344;28;20094;-59
2022/01/11 06:20:44;;;;;;;23.10;16.95;;;;;;;;;;5052308;28;20037;-59
2022/01/11 06:23:10;;;;;;;22.40;16.63;;;;;;;;;;5052172;28;20048;-59
2022/01/11 06:25:36;;;;;;;24.45;17.05;;;;;;;;;;5052578;28;20551;-59
2022/01/11 06:28:03;;;;;;;22.25;16.48;;;;;;;;;;5052247;28;20053;-59
2022/01/11 06:30:29;;;;;;;23.38;15.57;;;;;;;;;;5051619;28;20053;-59
2022/01/11 06:32:56;;;;;;;23.90;16.98;;;;;;;;;;5051868;28;20044;-59
2022/01/11 06:35:23;;;;;;;24.60;17.05;;;;;;;;;;5052561;28;20049;-59
2022/01/11 06:37:51;;;;;;;25.70;18.17;;;;;;;;;;5051229;28;20053;-58
2022/01/11 06:40:20;;;;;;;23.63;16.73;;;;;;;;;;5052178;28;20476;-58
2022/01/11 06:42:46;;;;;;;24.77;17.05;;;;;;;;;;5051716;28;20385;-58
2022/01/11 06:45:13;;;;;;;25.05;17.88;;;;;;;;;;5051398;28;20049;-58
2022/01/11 06:47:39;;;;;;;24.45;17.73;;;;;;;;;;5051857;28;20542;-58
2022/01/11 06:50:06;;;;;;;25.02;18.42;;;;;;;;;;5051695;28;20049;-59
2022/01/11 06:52:32;;;;;;;28.08;18.00;;;;;;;;;;5051306;28;20056;-58
2022/01/11 06:55:00;;;;;;;26.38;18.67;;;;;;;;;;5051701;28;20071;-58
2022/01/11 06:57:27;;;;;;;25.90;17.63;;;;;;;;;;5051185;28;20110;-59
2022/01/11 06:59:53;;;;;;;24.20;18.05;;;;;;;;;;5051612;28;20078;-59
2022/01/11 07:02:19;;;;;;;25.80;18.60;;;;;;;;;;5051742;28;20045;-59
2022/01/11 07:04:46;;;;;;;25.67;18.63;;;;;;;;;;5050573;28;20114;-59
2022/01/11 07:07:12;;;;;;;23.85;17.35;;;;;;;;;;5051725;28;20053;-59
2022/01/11 07:09:38;;;;;;;24.65;17.48;;;;;;;;;;5051820;28;20044;-59
2022/01/11 07:12:06;;;;;;;26.55;18.63;;;;;;;;;;5050724;28;20056;-58
2022/01/11 07:14:33;;;;;;;27.70;19.77;;;;;;;;;;5051433;28;20185;-58
2022/01/11 07:16:59;;;;;;;26.00;18.42;;;;;;;;;;5051254;28;20048;-59
2022/01/11 07:19:27;;;;;;;25.50;18.40;;;;;;;;;;5050435;28;20045;-59
2022/01/11 07:21:53;;;;;;;26.48;18.55;;;;;;;;;;5051084;28;20079;-58
2022/01/11 07:24:19;;;;;;;28.63;19.50;;;;;;;;;;5051239;28;20087;-59
2022/01/11 07:26:46;;;;;;;25.25;18.02;;;;;;;;;;5050448;28;20111;-59
2022/01/11 07:29:13;;;;;;;26.45;18.90;;;;;;;;;;5051412;28;20045;-59
2022/01/11 07:31:41;;;;;;;27.63;18.90;;;;;;;;;;5051578;28;20377;-59
2022/01/11 07:34:08;;;;;;;27.70;19.25;;;;;;;;;;5050610;28;20079;-59
2022/01/11 07:36:34;;;;;;;25.77;18.67;;;;;;;;;;5051459;28;20495;-58
2022/01/11 07:39:02;;;;;;;25.77;18.30;;;;;;;;;;5050838;28;20554;-58
2022/01/11 07:41:28;;;;;;;26.52;19.50;;;;;;;;;;5050621;28;20507;-58
2022/01/11 07:43:54;;;;;;;28.70;20.38;;;;;;;;;;5050833;28;20071;-58
2022/01/11 07:46:23;;;;;;;29.27;20.05;;;;;;;;;;5051568;28;20041;-59
2022/01/11 07:48:50;;;;;;;29.15;19.63;;;;;;;;;;5050048;28;20485;-59
2022/01/11 07:51:16;;;;;;;28.42;20.02;;;;;;;;;;5051358;28;20045;-59
2022/01/11 07:53:42;;;;;;;28.98;19.08;;;;;;;;;;5050247;28;20049;-59
2022/01/11 07:56:08;;;;;;;27.58;19.40;;;;;;;;;;5051094;28;20476;-59
2022/01/11 07:58:35;;;;;;;28.10;20.40;;;;;;;;;;5050972;28;20546;-59
2022/01/11 08:01:01;;;;;;;26.48;18.63;;;;;;;;;;5050337;28;20106;-59
2022/01/11 08:03:28;;;;;;;27.25;18.88;;;;;;;;;;5051312;28;20052;-59
2022/01/11 08:05:55;;;;;;;28.08;19.80;;;;;;;;;;5050551;28;20041;-59
2022/01/11 08:08:21;;;;;;;27.88;19.98;;;;;;;;;;5050376;28;20049;-59
2022/01/11 08:10:47;;;;;;;26.63;19.40;;;;;;;;;;5050530;28;20427;-59
2022/01/11 08:13:13;;;;;;;27.48;19.27;;;;;;;;;;5051302;28;20049;-59
2022/01/11 08:15:40;;;;;;;29.23;19.77;;;;;;;;;;5050313;28;20041;-59
2022/01/11 08:18:06;;;;;;;26.60;19.58;;;;;;;;;;5050769;28;20056;-58
2022/01/11 08:20:34;;;;;;;27.52;18.90;;;;;;;;;;5050204;28;20075;-59
2022/01/11 08:23:00;;;;;;;27.67;19.70;;;;;;;;;;5049992;28;20045;-58
2022/01/11 08:25:27;;;;;;;26.00;18.85;;;;;;;;;;5050740;28;20102;-58
2022/01/11 08:27:53;;;;;;;26.95;18.95;;;;;;;;;;5050933;28;20439;-58
2022/01/11 08:30:20;;;;;;;26.48;19.35;;;;;;;;;;5050259;28;20079;-58
2022/01/11 08:32:46;;;;;;;26.23;18.83;;;;;;;;;;5051770;28;20106;-59
2022/01/11 08:35:13;;;;;;;26.27;19.38;;;;;;;;;;5054419;28;20057;-59
2022/01/11 08:37:40;;;;;;;27.52;19.33;;;;;;;;;;5054068;28;20102;-59
2022/01/11 08:40:07;;;;;;;24.33;18.35;;;;;;;;;;5054310;28;20095;-59
2022/01/11 08:42:33;;;;;;;26.05;18.92;;;;;;;;;;5055000;28;20045;-59
2022/01/11 08:45:00;;;;;;;26.00;19.15;;;;;;;;;;5053585;28;20101;-58
2022/01/11 08:47:30;;;;;;;27.20;18.98;;;;;;;;;;5054631;28;20081;-58
2022/01/11 08:49:57;;;;;;;27.25;19.80;;;;;;;;;;5049818;28;20524;-58
2022/01/11 08:52:23;;;;;;;22.67;17.60;;;;;;;;;;5054172;28;20051;-58
2022/01/11 08:54:51;;;;;;;27.35;17.90;;;;;;;;;;5053936;28;20075;-58
2022/01/11 08:57:19;;;;;;;26.65;17.83;;;;;;;;;;5053335;28;20049;-58
2022/01/11 08:59:46;;;;;;;25.27;17.13;;;;;;;;;;5053911;28;20381;-58
2022/01/11 09:02:12;;;;;;;25.90;18.20;;;;;;;;;;5054130;28;20098;-57
2022/01/11 09:04:38;;;;;;;23.33;17.15;;;;;;;;;;5052869;28;20553;-58
2022/01/11 09:07:04;;;;;;;24.48;17.70;;;;;;;;;;5053467;28;20053;-57
2022/01/11 09:09:32;;;;;;;23.95;17.67;;;;;;;;;;5053857;28;20514;-58
2022/01/11 09:12:02;;;;;;;24.67;17.25;;;;;;;;;;5052826;28;20041;-58
2022/01/11 09:14:28;;;;;;;24.23;17.17;;;;;;;;;;5053840;28;20530;-58
2022/01/11 09:16:56;;;;;;;22.73;16.58;;;;;;;;;;5053421;28;20128;-58
2022/01/11 09:19:22;;;;;;;26.65;18.55;;;;;;;;;;5052550;28;20061;-58
2022/01/11 09:21:49;;;;;;;23.45;16.92;;;;;;;;;;5053190;28;20538;-58
2022/01/11 09:24:19;;;;;;;25.13;17.83;;;;;;;;;;5053841;28;20103;-59
2022/01/11 09:26:45;;;;;;;24.80;17.45;;;;;;;;;;5052607;28;20049;-58
2022/01/11 09:29:13;;;;;;;23.33;16.90;;;;;;;;;;5053809;28;20045;-58
2022/01/11 09:31:39;;;;;;;25.13;17.38;;;;;;;;;;5053293;28;20484;-59
2022/01/11 09:34:05;;;;;;;22.75;16.80;;;;;;;;;;5052048;28;20577;-59
2022/01/11 09:36:32;;;;;;;21.50;16.15;;;;;;;;;;5053591;28;20052;-59
2022/01/11 09:38:58;;;;;;;25.95;17.25;;;;;;;;;;5053277;28;20534;-58
2022/01/11 09:41:24;;;;;;;24.85;17.23;;;;;;;;;;5053103;28;20464;-59
2022/01/11 09:43:51;;;;;;;24.23;17.00;;;;;;;;;;5052860;28;20079;-59
2022/01/11 09:46:18;;;;;;;21.33;15.43;;;;;;;;;;5052532;28;20541;-58
2022/01/11 09:48:45;;;;;;;21.50;15.98;;;;;;;;;;5052375;28;20053;-57
2022/01/11 09:51:11;;;;;;;20.02;15.00;;;;;;;;;;5053464;28;20098;-57
2022/01/11 09:53:38;;;;;;;20.88;15.25;;;;;;;;;;5052474;28;20458;-57
2022/01/11 09:56:05;;;;;;;21.02;15.88;;;;;;;;;;5052897;28;20044;-57
2022/01/11 09:58:32;;;;;;;20.77;15.32;;;;;;;;;;5053379;28;20059;-58
2022/01/11 10:00:59;;;;;;;23.77;16.83;;;;;;;;;;5051979;28;20068;-58
2022/01/11 10:03:27;;;;;;;22.20;16.05;;;;;;;;;;5052201;28;20484;-58
2022/01/11 10:05:53;;;;;;;21.13;16.08;;;;;;;;;;5052462;28;20057;-58
2022/01/11 10:08:21;;;;;;;22.95;16.30;;;;;;;;;;5052227;28;20041;-58
2022/01/11 10:10:48;;;;;;;22.25;16.08;;;;;;;;;;5052671;28;20190;-58
2022/01/11 10:13:28;;;;;;;20.88;16.15;;;;;;;;;;5052781;28;20045;-58
2022/01/11 10:15:54;;;;;;;21.67;15.88;;;;;;;;;;5051560;28;20053;-58
2022/01/11 10:18:34;;;;;;;22.02;16.08;;;;;;;;;;5052466;28;20053;-58
2022/01/11 10:21:00;;;;;;;22.30;16.33;;;;;;;;;;5052621;28;20051;-58
2022/01/11 10:23:32;;;;;;;21.48;16.67;;;;;;;;;;5051724;28;20045;-59
2022/01/11 10:25:58;;;;;;;22.17;17.10;;;;;;;;;;5052393;28;20049;-58
2022/01/11 10:28:34;;;;;;;21.25;16.30;;;;;;;;;;5051619;28;20484;-58
2022/01/11 10:31:00;;;;;;;21.35;15.50;;;;;;;;;;5052483;28;20044;-58
2022/01/11 10:33:26;;;;;;;23.95;16.50;;;;;;;;;;5051789;28;20053;-58
2022/01/11 10:35:54;;;;;;;23.73;16.63;;;;;;;;;;5051436;28;20049;-58
2022/01/11 10:38:24;;;;;;;20.20;15.82;;;;;;;;;;5052247;28;20052;-57
2022/01/11 10:40:51;;;;;;;22.83;16.20;;;;;;;;;;5051672;28;20049;-58
2022/01/11 10:43:18;;;;;;;23.90;16.52;;;;;;;;;;5051591;28;20458;-58
2022/01/11 10:45:45;;;;;;;22.30;16.38;;;;;;;;;;5051460;28;20048;-57
2022/01/11 10:48:12;;;;;;;23.73;16.38;;;;;;;;;;5051614;28;20158;-58
2022/01/11 10:50:40;;;;;;;22.02;16.60;;;;;;;;;;5051244;28;20072;-57
2022/01/11 10:53:11;;;;;;;24.15;17.20;;;;;;;;;;5051954;28;20044;-58
2022/01/11 10:55:38;;;;;;;21.15;16.40;;;;;;;;;;5051283;28;20056;-58
2022/01/11 10:58:05;;;;;;;21.05;16.42;;;;;;;;;;5051133;28;20095;-59
2022/01/11 11:00:32;;;;;;;22.45;16.63;;;;;;;;;;5051826;28;20110;-58
2022/01/11 11:03:00;;;;;;;21.42;15.40;;;;;;;;;;5051246;28;20045;-58
2022/01/11 11:05:30;;;;;;;22.45;16.63;;;;;;;;;;5051167;28;20056;-58
2022/01/11 11:07:58;;;;;;;22.42;17.05;;;;;;;;;;5051356;28;20055;-58
2022/01/11 11:10:36;;;;;;;22.58;15.68;;;;;;;;;;5051615;28;20523;-58
2022/01/11 11:13:04;;;;;;;25.98;15.82;;;;;;;;;;5051667;28;20107;-57
2022/01/11 11:15:31;;;;;;;23.42;16.58;;;;;;;;;;5051297;28;20460;-59
2022/01/11 11:17:57;;;;;;;22.27;16.33;;;;;;;;;;5049916;28;20883;-58
2022/01/11 11:20:24;;;;;;;20.67;15.90;;;;;;;;;;5051280;28;20094;-58
2022/01/11 11:22:50;;;;;;;22.33;16.35;;;;;;;;;;5051429;28;20052;-58
2022/01/11 11:25:17;;;;;;;24.27;16.90;;;;;;;;;;5050530;28;20103;-58
2022/01/11 11:27:44;;;;;;;21.15;16.20;;;;;;;;;;5051263;28;20053;-58
2022/01/11 11:30:11;;;;;;;20.10;14.95;;;;;;;;;;5051331;28;20052;-58
2022/01/11 11:32:37;;;;;;;21.08;15.70;;;;;;;;;;5050175;28;20049;-57
2022/01/11 11:35:04;;;;;;;21.35;15.93;;;;;;;;;;5050691;28;20048;-58
2022/01/11 11:37:33;;;;;;;20.33;15.68;;;;;;;;;;5051394;28;20048;-58
2022/01/11 11:40:00;;;;;;;20.33;15.20;;;;;;;;;;5049849;28;20515;-59
2022/01/11 11:42:28;;;;;;;20.42;15.38;;;;;;;;;;5051351;28;20094;-58
2022/01/11 11:44:57;;;;;;;20.23;15.82;;;;;;;;;;5050918;28;20506;-59
2022/01/11 11:47:31;;;;;;;21.85;15.50;;;;;;;;;;5050012;28;20098;-58
2022/01/11 11:49:58;;;;;;;21.67;15.80;;;;;;;;;;5030985;28;20049;-59
2022/01/11 11:52:26;;;;;;;21.27;16.13;;;;;;;;;;5031319;28;20050;-59
2022/01/11 11:54:53;;;;;;;19.15;15.25;;;;;;;;;;5030172;28;20049;-59
2022/01/11 11:57:20;;;;;;;21.98;16.30;;;;;;;;;;5031063;28;20049;-58
2022/01/11 11:59:54;;;;;;;21.05;16.10;;;;;;;;;;5036375;28;20045;-58
2022/01/11 12:02:35;;;;;;;19.40;15.40;;;;;;;;;;5050839;28;20114;-58
2022/01/11 12:05:04;;;;;;;19.67;15.48;;;;;;;;;;5050532;28;20049;-58
2022/01/11 12:07:33;;;;;;;19.63;15.23;;;;;;;;;;5052514;28;20076;-58
2022/01/11 12:10:00;;;;;;;22.00;16.15;;;;;;;;;;5054827;28;20052;-58
2022/01/11 12:12:42;;;;;;;19.17;14.65;;;;;;;;;;5054909;28;20047;-58
2022/01/11 12:15:23;;;;;;;19.27;14.38;;;;;;;;;;5054517;28;20103;-58
2022/01/11 12:18:11;;;;;;;19.25;15.10;;;;;;;;;;5053324;28;20045;-58
2022/01/11 12:20:40;;;;;;;21.75;15.60;;;;;;;;;;5054768;28;20045;-58
2022/01/11 12:23:07;;;;;;;20.83;15.80;;;;;;;;;;5054111;28;20048;-59
2022/01/11 12:25:37;;;;;;;20.95;14.98;;;;;;;;;;5055041;28;20460;-58
2022/01/11 12:28:05;;;;;;;19.65;14.52;;;;;;;;;;5053787;28;20045;-59
2022/01/11 12:30:32;;;;;;;18.65;14.23;;;;;;;;;;5054950;28;20099;-58
2022/01/11 12:33:17;;;;;;;18.60;14.65;;;;;;;;;;5053741;28;20053;-58
2022/01/11 12:35:54;;;;;;;19.92;14.45;;;;;;;;;;5053853;28;20130;-57
2022/01/11 12:38:20;;;;;;;18.58;14.85;;;;;;;;;;5054441;28;20499;-58
2022/01/11 12:40:47;;;;;;;18.23;14.45;;;;;;;;;;5054193;28;20480;-58
2022/01/11 12:43:18;;;;;;;19.00;14.82;;;;;;;;;;5053673;28;20045;-58
2022/01/11 12:46:02;;;;;;;17.35;13.82;;;;;;;;;;5054106;28;20048;-57
2022/01/11 12:48:49;;;;;;;17.13;13.65;;;;;;;;;;5054006;28;20071;-57
2022/01/11 12:51:15;;;;;;;;;;;;;;;;;;5054078;28;20060;-57
2022/01/11 12:53:42;;;;;;;14.13;10.43;;;;;;;;;;5054401;28;19921;-57
2022/01/11 12:56:08;;;;;;;19.50;13.45;;;;;;;;;;5053616;28;20049;-58
2022/01/11 12:58:35;;;;;;;17.30;13.32;;;;;;;;;;5054398;28;20049;-58
2022/01/11 13:01:15;;;;;;;17.67;12.90;;;;;;;;;;5054214;28;20076;-58
2022/01/11 13:03:47;;;;;;;17.38;13.15;;;;;;;;;;5053574;28;20136;-58
2022/01/11 13:06:14;;;;;;;16.55;13.20;;;;;;;;;;5053710;28;20492;-58
2022/01/11 13:08:42;;;;;;;17.73;13.25;;;;;;;;;;5054012;28;20114;-57
2022/01/11 13:11:17;;;;;;;17.98;13.45;;;;;;;;;;5053446;28;20041;-58
2022/01/11 13:13:52;;;;;;;17.17;13.07;;;;;;;;;;5053637;28;20041;-57
2022/01/11 13:16:20;;;;;;;17.20;13.10;;;;;;;;;;5054035;28;20047;-57
2022/01/11 13:18:47;;;;;;;15.98;12.65;;;;;;;;;;5051951;28;20541;-58
2022/01/11 13:21:13;;;;;;;16.88;12.77;;;;;;;;;;5053642;28;20095;-57
2022/01/11 13:23:45;;;;;;;15.88;12.45;;;;;;;;;;5053509;28;20051;-57
2022/01/11 13:26:12;;;;;;;16.58;12.77;;;;;;;;;;5053352;28;20052;-58
2022/01/11 13:28:42;;;;;;;15.77;12.88;;;;;;;;;;5054158;28;20118;-58
2022/01/11 13:31:09;;;;;;;16.98;12.50;;;;;;;;;;5053491;28;20518;-58
2022/01/11 13:33:36;;;;;;;17.10;12.00;;;;;;;;;;5053568;28;20052;-58
2022/01/11 13:36:09;;;;;;;14.23;11.50;;;;;;;;;;5053443;28;20099;-58
2022/01/11 13:38:35;;;;;;;16.52;12.27;;;;;;;;;;5052895;28;20079;-58
2022/01/11 13:41:02;;;;;;;15.02;12.50;;;;;;;;;;5053401;28;20111;-59
2022/01/11 13:43:35;;;;;;;13.63;11.10;;;;;;;;;;5053468;28;20049;-58
2022/01/11 13:46:03;;;;;;;16.27;12.23;;;;;;;;;;5052394;28;20057;-59
2022/01/11 13:48:35;;;;;;;15.57;12.00;;;;;;;;;;5053190;28;20044;-59
2022/01/11 13:51:01;;;;;;;15.30;12.15;;;;;;;;;;5053416;28;20053;-59
2022/01/11 13:53:29;;;;;;;14.70;11.43;;;;;;;;;;5052613;28;20095;-58
2022/01/11 13:56:00;;;;;;;15.65;11.85;;;;;;;;;;5053032;28;20520;-58
2022/01/11 13:58:27;;;;;;;14.15;11.40;;;;;;;;;;5053157;28;20499;-58
2022/01/11 14:00:53;;;;;;;15.85;11.65;;;;;;;;;;5051927;28;20049;-57
2022/01/11 14:03:20;;;;;;;14.32;11.57;;;;;;;;;;5053356;28;20045;-58
2022/01/11 14:05:47;;;;;;;15.55;11.40;;;;;;;;;;5052708;28;20057;-58
2022/01/11 14:08:13;;;;;;;14.85;11.77;;;;;;;;;;5052580;28;20110;-57
2022/01/11 14:10:42;;;;;;;14.68;12.05;;;;;;;;;;5052828;28;20491;-58
2022/01/11 14:13:09;;;;;;;15.70;11.88;;;;;;;;;;5052353;28;20056;-58
2022/01/11 14:15:36;;;;;;;14.00;11.23;;;;;;;;;;5052008;28;20049;-59
2022/01/11 14:18:10;;;;;;;15.80;12.10;;;;;;;;;;5051981;28;20512;-59